Terminal Aerodrome Forecast
Issued by NWS St Louis, MO

Home | Current Version | Previous Version | Text Only | Print | Product List | Glossary On
Versions: 1 2 3 4 5 6 7 8 9 10 11 12 13 14 15 16 17 18 19 20 21 22 23 24 25 26
986
FTUS43 KLSX 271128
TAFSTL
TAF
KSTL 271128Z 2712/2818 28012KT P6SM OVC015
     FM271600 27010G17KT P6SM BKN025
     FM271700 26010G17KT P6SM SCT030
     FM272000 26009KT P6SM FEW200
     FM280000 VRB05KT P6SM BKN200=

USA.gov is the U.S. government's official web portal to all federal, state and local government web resources and services.